sensor_id;sensor_type;location;lat;lon;timestamp;temperature;humidity
32201;DHT22;18701;45.588;5.288;2023-05-16T00:00:04;13.70;99.90
32201;DHT22;18701;45.588;5.288;2023-05-16T00:02:34;13.70;99.90
32201;DHT22;18701;45.588;5.288;2023-05-16T00:05:02;13.60;99.90
32201;DHT22;18701;45.588;5.288;2023-05-16T00:07:29;13.60;99.90
32201;DHT22;18701;45.588;5.288;2023-05-16T00:09:55;13.50;99.90
32201;DHT22;18701;45.588;5.288;2023-05-16T00:12:21;13.60;99.90
32201;DHT22;18701;45.588;5.288;2023-05-16T00:14:47;13.70;99.90
32201;DHT22;18701;45.588;5.288;2023-05-16T00:17:14;13.60;99.90
32201;DHT22;18701;45.588;5.288;2023-05-16T00:19:42;13.80;99.90
32201;DHT22;18701;45.588;5.288;2023-05-16T00:22:09;13.60;99.90
32201;DHT22;18701;45.588;5.288;2023-05-16T00:24:36;13.40;99.90
32201;DHT22;18701;45.588;5.288;2023-05-16T00:27:01;13.30;99.90
32201;DHT22;18701;45.588;5.288;2023-05-16T00:29:29;13.50;99.90
32201;DHT22;18701;45.588;5.288;2023-05-16T00:31:55;13.30;99.90
32201;DHT22;18701;45.588;5.288;2023-05-16T00:34:21;13.20;99.90
32201;DHT22;18701;45.588;5.288;2023-05-16T00:36:48;13.30;99.90
32201;DHT22;18701;45.588;5.288;2023-05-16T00:39:14;13.20;99.90
32201;DHT22;18701;45.588;5.288;2023-05-16T00:41:40;13.30;99.90
32201;DHT22;18701;45.588;5.288;2023-05-16T00:44:06;13.00;99.90
32201;DHT22;18701;45.588;5.288;2023-05-16T00:46:31;13.20;99.90
32201;DHT22;18701;45.588;5.288;2023-05-16T00:48:57;13.20;99.90
32201;DHT22;18701;45.588;5.288;2023-05-16T00:51:23;13.20;99.90
32201;DHT22;18701;45.588;5.288;2023-05-16T00:53:49;13.20;99.90
32201;DHT22;18701;45.588;5.288;2023-05-16T00:56:16;13.30;99.90
32201;DHT22;18701;45.588;5.288;2023-05-16T00:58:42;13.40;99.90
32201;DHT22;18701;45.588;5.288;2023-05-16T01:01:08;13.50;99.90
32201;DHT22;18701;45.588;5.288;2023-05-16T01:03:34;13.40;99.90
32201;DHT22;18701;45.588;5.288;2023-05-16T01:06:00;13.30;99.90
32201;DHT22;18701;45.588;5.288;2023-05-16T01:08:26;13.20;99.90
32201;DHT22;18701;45.588;5.288;2023-05-16T01:11:05;13.40;99.90
32201;DHT22;18701;45.588;5.288;2023-05-16T01:13:40;13.30;99.90
32201;DHT22;18701;45.588;5.288;2023-05-16T01:16:30;13.30;99.90
32201;DHT22;18701;45.588;5.288;2023-05-16T01:24:13;13.20;99.90
32201;DHT22;18701;45.588;5.288;2023-05-16T01:26:41;13.20;99.90
32201;DHT22;18701;45.588;5.288;2023-05-16T01:29:07;13.30;99.90
32201;DHT22;18701;45.588;5.288;2023-05-16T01:31:33;13.20;99.90
32201;DHT22;18701;45.588;5.288;2023-05-16T01:33:58;13.20;99.90
32201;DHT22;18701;45.588;5.288;2023-05-16T01:36:59;13.30;99.90
32201;DHT22;18701;45.588;5.288;2023-05-16T01:39:40;13.20;99.90
32201;DHT22;18701;45.588;5.288;2023-05-16T01:42:11;13.10;99.90
32201;DHT22;18701;45.588;5.288;2023-05-16T01:44:58;13.20;99.90
32201;DHT22;18701;45.588;5.288;2023-05-16T01:47:26;13.10;99.90
32201;DHT22;18701;45.588;5.288;2023-05-16T01:50:14;13.20;99.90
32201;DHT22;18701;45.588;5.288;2023-05-16T01:55:46;13.20;99.90
32201;DHT22;18701;45.588;5.288;2023-05-16T01:58:14;13.20;99.90
32201;DHT22;18701;45.588;5.288;2023-05-16T02:00:40;13.00;99.90
32201;DHT22;18701;45.588;5.288;2023-05-16T02:03:06;13.00;99.90
32201;DHT22;18701;45.588;5.288;2023-05-16T02:05:32;13.20;99.90
32201;DHT22;18701;45.588;5.288;2023-05-16T02:07:58;13.10;99.90
32201;DHT22;18701;45.588;5.288;2023-05-16T02:10:24;13.10;99.90
32201;DHT22;18701;45.588;5.288;2023-05-16T02:12:51;13.00;99.90
32201;DHT22;18701;45.588;5.288;2023-05-16T02:15:17;13.10;99.90
32201;DHT22;18701;45.588;5.288;2023-05-16T02:17:43;12.90;99.90
32201;DHT22;18701;45.588;5.288;2023-05-16T02:20:09;13.00;99.90
32201;DHT22;18701;45.588;5.288;2023-05-16T02:22:36;13.00;99.90
32201;DHT22;18701;45.588;5.288;2023-05-16T02:25:04;13.00;99.90
32201;DHT22;18701;45.588;5.288;2023-05-16T02:27:29;13.10;99.90
32201;DHT22;18701;45.588;5.288;2023-05-16T02:29:55;13.10;99.90
32201;DHT22;18701;45.588;5.288;2023-05-16T02:32:21;13.10;99.90
32201;DHT22;18701;45.588;5.288;2023-05-16T02:34:49;13.20;99.90
32201;DHT22;18701;45.588;5.288;2023-05-16T02:37:15;13.20;99.90
32201;DHT22;18701;45.588;5.288;2023-05-16T02:39:40;13.10;99.90
32201;DHT22;18701;45.588;5.288;2023-05-16T02:42:06;13.20;99.90
32201;DHT22;18701;45.588;5.288;2023-05-16T02:44:32;13.20;99.90
32201;DHT22;18701;45.588;5.288;2023-05-16T02:46:58;12.90;99.90
32201;DHT22;18701;45.588;5.288;2023-05-16T02:49:24;13.00;99.90
32201;DHT22;18701;45.588;5.288;2023-05-16T02:51:50;13.00;99.90
32201;DHT22;18701;45.588;5.288;2023-05-16T02:54:16;13.10;99.90
32201;DHT22;18701;45.588;5.288;2023-05-16T02:56:41;13.00;99.90
32201;DHT22;18701;45.588;5.288;2023-05-16T02:59:07;12.90;99.90
32201;DHT22;18701;45.588;5.288;2023-05-16T03:01:33;12.90;99.90
32201;DHT22;18701;45.588;5.288;2023-05-16T03:03:59;12.90;99.90
32201;DHT22;18701;45.588;5.288;2023-05-16T03:06:24;12.90;99.90
32201;DHT22;18701;45.588;5.288;2023-05-16T03:08:50;12.90;99.90
32201;DHT22;18701;45.588;5.288;2023-05-16T03:11:17;13.10;99.90
32201;DHT22;18701;45.588;5.288;2023-05-16T03:13:47;12.80;99.90
32201;DHT22;18701;45.588;5.288;2023-05-16T03:16:13;12.90;99.90
32201;DHT22;18701;45.588;5.288;2023-05-16T03:18:39;12.90;99.90
32201;DHT22;18701;45.588;5.288;2023-05-16T03:21:04;12.80;99.90
32201;DHT22;18701;45.588;5.288;2023-05-16T03:23:30;12.60;99.90
32201;DHT22;18701;45.588;5.288;2023-05-16T03:25:55;12.80;99.90
32201;DHT22;18701;45.588;5.288;2023-05-16T03:28:21;12.70;99.90
32201;DHT22;18701;45.588;5.288;2023-05-16T03:30:47;12.90;99.90
32201;DHT22;18701;45.588;5.288;2023-05-16T03:33:12;13.00;99.90
32201;DHT22;18701;45.588;5.288;2023-05-16T03:35:38;12.90;99.90
32201;DHT22;18701;45.588;5.288;2023-05-16T03:38:04;12.90;99.90
32201;DHT22;18701;45.588;5.288;2023-05-16T03:40:30;12.90;99.90
32201;DHT22;18701;45.588;5.288;2023-05-16T03:42:56;12.70;99.90
32201;DHT22;18701;45.588;5.288;2023-05-16T03:45:22;12.90;99.90
32201;DHT22;18701;45.588;5.288;2023-05-16T03:47:48;12.60;99.90
32201;DHT22;18701;45.588;5.288;2023-05-16T03:50:14;12.80;99.90
32201;DHT22;18701;45.588;5.288;2023-05-16T03:52:40;12.50;99.90
32201;DHT22;18701;45.588;5.288;2023-05-16T03:55:06;12.60;99.90
32201;DHT22;18701;45.588;5.288;2023-05-16T03:57:33;12.70;99.90
32201;DHT22;18701;45.588;5.288;2023-05-16T03:59:59;12.60;99.90
32201;DHT22;18701;45.588;5.288;2023-05-16T04:02:24;12.70;99.90
32201;DHT22;18701;45.588;5.288;2023-05-16T04:04:50;12.70;99.90
32201;DHT22;18701;45.588;5.288;2023-05-16T04:07:19;12.70;99.90
32201;DHT22;18701;45.588;5.288;2023-05-16T04:09:45;12.70;99.90
32201;DHT22;18701;45.588;5.288;2023-05-16T04:12:10;12.50;99.90
32201;DHT22;18701;45.588;5.288;2023-05-16T04:14:36;12.70;99.90
32201;DHT22;18701;45.588;5.288;2023-05-16T04:17:02;12.60;99.90
32201;DHT22;18701;45.588;5.288;2023-05-16T04:19:28;12.80;99.90
32201;DHT22;18701;45.588;5.288;2023-05-16T04:21:53;12.60;99.90
32201;DHT22;18701;45.588;5.288;2023-05-16T04:24:19;12.70;99.90
32201;DHT22;18701;45.588;5.288;2023-05-16T04:26:45;12.70;99.90
32201;DHT22;18701;45.588;5.288;2023-05-16T04:29:11;12.60;99.90
32201;DHT22;18701;45.588;5.288;2023-05-16T04:31:38;12.60;99.90
32201;DHT22;18701;45.588;5.288;2023-05-16T04:34:04;12.50;99.90
32201;DHT22;18701;45.588;5.288;2023-05-16T04:36:30;12.50;99.90
32201;DHT22;18701;45.588;5.288;2023-05-16T04:38:55;12.60;99.90
32201;DHT22;18701;45.588;5.288;2023-05-16T04:41:22;12.50;99.90
32201;DHT22;18701;45.588;5.288;2023-05-16T04:43:48;12.70;99.90
32201;DHT22;18701;45.588;5.288;2023-05-16T04:46:13;12.50;99.90
32201;DHT22;18701;45.588;5.288;2023-05-16T04:48:42;12.60;99.90
32201;DHT22;18701;45.588;5.288;2023-05-16T04:51:07;12.60;99.90
32201;DHT22;18701;45.588;5.288;2023-05-16T04:53:33;12.50;99.90
32201;DHT22;18701;45.588;5.288;2023-05-16T04:55:59;12.50;99.90
32201;DHT22;18701;45.588;5.288;2023-05-16T04:58:25;12.60;99.90
32201;DHT22;18701;45.588;5.288;2023-05-16T05:00:51;12.50;99.90
32201;DHT22;18701;45.588;5.288;2023-05-16T05:03:17;12.50;99.90
32201;DHT22;18701;45.588;5.288;2023-05-16T05:05:43;12.50;99.90
32201;DHT22;18701;45.588;5.288;2023-05-16T05:08:09;12.20;99.90
32201;DHT22;18701;45.588;5.288;2023-05-16T05:10:35;12.20;99.90
32201;DHT22;18701;45.588;5.288;2023-05-16T05:13:00;12.30;99.90
32201;DHT22;18701;45.588;5.288;2023-05-16T05:15:26;12.40;99.90
32201;DHT22;18701;45.588;5.288;2023-05-16T05:17:52;12.50;99.90
32201;DHT22;18701;45.588;5.288;2023-05-16T05:20:18;12.40;99.90
32201;DHT22;18701;45.588;5.288;2023-05-16T05:22:43;12.50;99.90
32201;DHT22;18701;45.588;5.288;2023-05-16T05:25:09;12.50;99.90
32201;DHT22;18701;45.588;5.288;2023-05-16T05:27:35;12.40;99.90
32201;DHT22;18701;45.588;5.288;2023-05-16T05:30:01;12.60;99.90
32201;DHT22;18701;45.588;5.288;2023-05-16T05:32:27;12.30;99.90
32201;DHT22;18701;45.588;5.288;2023-05-16T05:34:53;12.50;99.90
32201;DHT22;18701;45.588;5.288;2023-05-16T05:37:18;12.50;99.90
32201;DHT22;18701;45.588;5.288;2023-05-16T05:39:44;12.40;99.90
32201;DHT22;18701;45.588;5.288;2023-05-16T05:42:10;12.50;99.90
32201;DHT22;18701;45.588;5.288;2023-05-16T05:44:36;12.40;99.90
32201;DHT22;18701;45.588;5.288;2023-05-16T05:47:03;12.30;99.90
32201;DHT22;18701;45.588;5.288;2023-05-16T05:49:29;12.30;99.90
32201;DHT22;18701;45.588;5.288;2023-05-16T05:51:55;12.30;99.90
32201;DHT22;18701;45.588;5.288;2023-05-16T05:54:22;12.30;99.90
32201;DHT22;18701;45.588;5.288;2023-05-16T05:56:48;12.60;99.90
32201;DHT22;18701;45.588;5.288;2023-05-16T05:59:14;12.40;99.90
32201;DHT22;18701;45.588;5.288;2023-05-16T06:01:40;12.30;99.90
32201;DHT22;18701;45.588;5.288;2023-05-16T06:04:06;12.40;99.90
32201;DHT22;18701;45.588;5.288;2023-05-16T06:06:32;12.50;99.90
32201;DHT22;18701;45.588;5.288;2023-05-16T06:08:58;12.40;99.90
32201;DHT22;18701;45.588;5.288;2023-05-16T06:11:23;12.40;99.90
32201;DHT22;18701;45.588;5.288;2023-05-16T06:13:52;12.30;99.90
32201;DHT22;18701;45.588;5.288;2023-05-16T06:16:17;12.40;99.90
32201;DHT22;18701;45.588;5.288;2023-05-16T06:18:43;12.30;99.90
32201;DHT22;18701;45.588;5.288;2023-05-16T06:21:09;12.40;99.90
32201;DHT22;18701;45.588;5.288;2023-05-16T06:23:35;12.50;99.90
32201;DHT22;18701;45.588;5.288;2023-05-16T06:26:01;12.30;99.90
32201;DHT22;18701;45.588;5.288;2023-05-16T06:28:27;12.50;99.90
32201;DHT22;18701;45.588;5.288;2023-05-16T06:30:53;12.40;99.90
32201;DHT22;18701;45.588;5.288;2023-05-16T06:33:19;12.50;99.90
32201;DHT22;18701;45.588;5.288;2023-05-16T06:35:45;12.50;99.90
32201;DHT22;18701;45.588;5.288;2023-05-16T06:38:12;12.40;99.90
32201;DHT22;18701;45.588;5.288;2023-05-16T06:40:37;12.50;99.90
32201;DHT22;18701;45.588;5.288;2023-05-16T06:43:03;12.60;99.90
32201;DHT22;18701;45.588;5.288;2023-05-16T06:45:29;12.50;99.90
32201;DHT22;18701;45.588;5.288;2023-05-16T06:47:55;12.40;99.90
32201;DHT22;18701;45.588;5.288;2023-05-16T06:50:21;12.40;99.90
32201;DHT22;18701;45.588;5.288;2023-05-16T06:52:47;12.20;99.90
32201;DHT22;18701;45.588;5.288;2023-05-16T06:55:12;12.40;99.90
32201;DHT22;18701;45.588;5.288;2023-05-16T06:57:38;12.20;99.90
32201;DHT22;18701;45.588;5.288;2023-05-16T07:00:04;12.10;99.90
32201;DHT22;18701;45.588;5.288;2023-05-16T07:02:30;12.10;99.90
32201;DHT22;18701;45.588;5.288;2023-05-16T07:04:56;12.10;99.90
32201;DHT22;18701;45.588;5.288;2023-05-16T07:07:21;12.10;99.90
32201;DHT22;18701;45.588;5.288;2023-05-16T07:09:47;12.20;99.90
32201;DHT22;18701;45.588;5.288;2023-05-16T07:12:13;12.10;99.90
32201;DHT22;18701;45.588;5.288;2023-05-16T07:14:38;12.20;99.90
32201;DHT22;18701;45.588;5.288;2023-05-16T07:17:05;12.20;99.90
32201;DHT22;18701;45.588;5.288;2023-05-16T07:19:30;12.10;99.90
32201;DHT22;18701;45.588;5.288;2023-05-16T07:21:56;12.30;99.90
32201;DHT22;18701;45.588;5.288;2023-05-16T07:24:22;12.40;99.90
32201;DHT22;18701;45.588;5.288;2023-05-16T07:26:48;12.20;99.90
32201;DHT22;18701;45.588;5.288;2023-05-16T07:29:13;12.30;99.90
32201;DHT22;18701;45.588;5.288;2023-05-16T07:31:39;12.20;99.90
32201;DHT22;18701;45.588;5.288;2023-05-16T07:34:05;12.30;99.90
32201;DHT22;18701;45.588;5.288;2023-05-16T07:36:33;12.20;99.90
32201;DHT22;18701;45.588;5.288;2023-05-16T07:38:59;12.10;99.90
32201;DHT22;18701;45.588;5.288;2023-05-16T07:41:25;11.90;99.90
32201;DHT22;18701;45.588;5.288;2023-05-16T07:43:50;12.10;99.90
32201;DHT22;18701;45.588;5.288;2023-05-16T07:46:16;12.00;99.90
32201;DHT22;18701;45.588;5.288;2023-05-16T07:48:41;12.10;99.90
32201;DHT22;18701;45.588;5.288;2023-05-16T07:51:07;11.90;99.90
32201;DHT22;18701;45.588;5.288;2023-05-16T07:53:33;11.90;99.90
32201;DHT22;18701;45.588;5.288;2023-05-16T07:55:59;11.80;99.90
32201;DHT22;18701;45.588;5.288;2023-05-16T07:58:24;11.90;99.90
32201;DHT22;18701;45.588;5.288;2023-05-16T08:00:50;11.90;99.90
32201;DHT22;18701;45.588;5.288;2023-05-16T08:03:16;11.80;99.90
32201;DHT22;18701;45.588;5.288;2023-05-16T08:05:41;11.90;99.90
32201;DHT22;18701;45.588;5.288;2023-05-16T08:08:07;11.60;99.90
32201;DHT22;18701;45.588;5.288;2023-05-16T08:10:33;11.80;99.90
32201;DHT22;18701;45.588;5.288;2023-05-16T08:12:58;11.70;99.90
32201;DHT22;18701;45.588;5.288;2023-05-16T08:15:26;11.60;99.90
32201;DHT22;18701;45.588;5.288;2023-05-16T08:17:55;11.70;99.90
32201;DHT22;18701;45.588;5.288;2023-05-16T08:20:21;11.60;99.90
32201;DHT22;18701;45.588;5.288;2023-05-16T08:22:47;12.00;99.90
32201;DHT22;18701;45.588;5.288;2023-05-16T08:25:12;11.70;99.90
32201;DHT22;18701;45.588;5.288;2023-05-16T08:27:38;11.50;99.90
32201;DHT22;18701;45.588;5.288;2023-05-16T08:30:04;11.60;99.90
32201;DHT22;18701;45.588;5.288;2023-05-16T08:32:30;11.60;99.90
32201;DHT22;18701;45.588;5.288;2023-05-16T08:34:55;11.80;99.90
32201;DHT22;18701;45.588;5.288;2023-05-16T08:37:21;11.70;99.90
32201;DHT22;18701;45.588;5.288;2023-05-16T08:39:47;11.60;99.90
32201;DHT22;18701;45.588;5.288;2023-05-16T08:42:12;11.80;99.90
32201;DHT22;18701;45.588;5.288;2023-05-16T08:44:38;11.50;99.90
32201;DHT22;18701;45.588;5.288;2023-05-16T08:47:10;11.60;99.90
32201;DHT22;18701;45.588;5.288;2023-05-16T08:49:39;11.60;99.90
32201;DHT22;18701;45.588;5.288;2023-05-16T08:52:07;11.70;99.90
32201;DHT22;18701;45.588;5.288;2023-05-16T08:54:34;12.00;99.90
32201;DHT22;18701;45.588;5.288;2023-05-16T08:57:00;12.00;99.90
32201;DHT22;18701;45.588;5.288;2023-05-16T08:59:27;12.20;99.90
32201;DHT22;18701;45.588;5.288;2023-05-16T09:01:54;12.40;99.90
32201;DHT22;18701;45.588;5.288;2023-05-16T09:04:20;12.30;99.90
32201;DHT22;18701;45.588;5.288;2023-05-16T09:06:46;12.70;99.90
32201;DHT22;18701;45.588;5.288;2023-05-16T09:09:12;12.40;99.90
32201;DHT22;18701;45.588;5.288;2023-05-16T09:11:38;12.60;99.90
32201;DHT22;18701;45.588;5.288;2023-05-16T09:14:04;12.40;99.90
32201;DHT22;18701;45.588;5.288;2023-05-16T09:16:30;12.30;99.90
32201;DHT22;18701;45.588;5.288;2023-05-16T09:18:58;12.20;99.90
32201;DHT22;18701;45.588;5.288;2023-05-16T09:21:31;12.30;99.90
32201;DHT22;18701;45.588;5.288;2023-05-16T09:24:04;12.00;99.90
32201;DHT22;18701;45.588;5.288;2023-05-16T09:26:32;12.20;99.90
32201;DHT22;18701;45.588;5.288;2023-05-16T09:28:57;12.20;99.90
32201;DHT22;18701;45.588;5.288;2023-05-16T09:31:25;12.30;99.90
32201;DHT22;18701;45.588;5.288;2023-05-16T09:34:00;12.20;99.90
32201;DHT22;18701;45.588;5.288;2023-05-16T09:36:25;12.10;99.90
32201;DHT22;18701;45.588;5.288;2023-05-16T09:38:51;12.20;99.90
32201;DHT22;18701;45.588;5.288;2023-05-16T09:41:17;12.20;99.90
32201;DHT22;18701;45.588;5.288;2023-05-16T09:43:43;12.10;99.90
32201;DHT22;18701;45.588;5.288;2023-05-16T09:46:13;12.20;99.90
32201;DHT22;18701;45.588;5.288;2023-05-16T09:48:46;12.20;99.90
32201;DHT22;18701;45.588;5.288;2023-05-16T09:51:13;12.10;99.90
32201;DHT22;18701;45.588;5.288;2023-05-16T09:53:39;12.00;99.90
32201;DHT22;18701;45.588;5.288;2023-05-16T09:56:15;12.00;99.90
32201;DHT22;18701;45.588;5.288;2023-05-16T09:58:42;12.20;99.90
32201;DHT22;18701;45.588;5.288;2023-05-16T10:01:09;12.10;99.90
32201;DHT22;18701;45.588;5.288;2023-05-16T10:03:37;12.00;99.90
32201;DHT22;18701;45.588;5.288;2023-05-16T10:06:04;12.00;99.90
32201;DHT22;18701;45.588;5.288;2023-05-16T10:08:34;12.00;99.90
32201;DHT22;18701;45.588;5.288;2023-05-16T10:11:05;12.20;99.90
32201;DHT22;18701;45.588;5.288;2023-05-16T10:13:35;12.30;99.90
32201;DHT22;18701;45.588;5.288;2023-05-16T10:16:14;12.40;99.90
32201;DHT22;18701;45.588;5.288;2023-05-16T10:18:40;12.30;99.90
32201;DHT22;18701;45.588;5.288;2023-05-16T10:21:09;12.40;99.90
32201;DHT22;18701;45.588;5.288;2023-05-16T10:23:37;12.60;99.90
32201;DHT22;18701;45.588;5.288;2023-05-16T10:26:06;12.60;99.90
32201;DHT22;18701;45.588;5.288;2023-05-16T10:28:32;12.90;99.90
32201;DHT22;18701;45.588;5.288;2023-05-16T10:31:00;12.70;99.90
32201;DHT22;18701;45.588;5.288;2023-05-16T10:33:27;12.70;99.90
32201;DHT22;18701;45.588;5.288;2023-05-16T10:35:54;12.80;99.90
32201;DHT22;18701;45.588;5.288;2023-05-16T10:38:20;12.90;99.90
32201;DHT22;18701;45.588;5.288;2023-05-16T10:40:48;12.90;99.90
32201;DHT22;18701;45.588;5.288;2023-05-16T10:43:25;13.20;99.90
32201;DHT22;18701;45.588;5.288;2023-05-16T10:45:56;13.60;99.90
32201;DHT22;18701;45.588;5.288;2023-05-16T10:50:54;14.20;99.90
32201;DHT22;18701;45.588;5.288;2023-05-16T10:53:21;14.30;99.90
32201;DHT22;18701;45.588;5.288;2023-05-16T11:01:29;13.60;99.90
32201;DHT22;18701;45.588;5.288;2023-05-16T11:06:30;13.90;99.90
32201;DHT22;18701;45.588;5.288;2023-05-16T11:09:20;13.70;99.90
32201;DHT22;18701;45.588;5.288;2023-05-16T11:11:57;13.60;99.90
32201;DHT22;18701;45.588;5.288;2023-05-16T11:17:14;13.40;99.90
32201;DHT22;18701;45.588;5.288;2023-05-16T11:25:04;13.30;99.90
32201;DHT22;18701;45.588;5.288;2023-05-16T11:27:42;13.10;99.90
32201;DHT22;18701;45.588;5.288;2023-05-16T11:30:16;13.00;99.90
32201;DHT22;18701;45.588;5.288;2023-05-16T11:32:44;13.20;99.90
32201;DHT22;18701;45.588;5.288;2023-05-16T11:35:16;12.90;99.90
32201;DHT22;18701;45.588;5.288;2023-05-16T11:37:43;13.10;99.90
32201;DHT22;18701;45.588;5.288;2023-05-16T11:40:10;13.00;99.90
32201;DHT22;18701;45.588;5.288;2023-05-16T11:42:42;12.80;99.90
32201;DHT22;18701;45.588;5.288;2023-05-16T11:45:14;12.70;99.90
32201;DHT22;18701;45.588;5.288;2023-05-16T11:47:41;12.60;99.90
32201;DHT22;18701;45.588;5.288;2023-05-16T11:50:12;12.80;99.90
32201;DHT22;18701;45.588;5.288;2023-05-16T11:52:39;12.80;99.90
32201;DHT22;18701;45.588;5.288;2023-05-16T11:55:06;12.80;99.90
32201;DHT22;18701;45.588;5.288;2023-05-16T11:57:32;12.80;99.90
32201;DHT22;18701;45.588;5.288;2023-05-16T12:00:09;12.60;99.90
32201;DHT22;18701;45.588;5.288;2023-05-16T12:02:38;12.50;99.90
32201;DHT22;18701;45.588;5.288;2023-05-16T12:05:08;12.50;99.90
32201;DHT22;18701;45.588;5.288;2023-05-16T12:07:37;12.50;99.90
32201;DHT22;18701;45.588;5.288;2023-05-16T12:10:07;12.60;99.90
32201;DHT22;18701;45.588;5.288;2023-05-16T12:12:34;12.50;99.90
32201;DHT22;18701;45.588;5.288;2023-05-16T12:15:01;12.50;99.90
32201;DHT22;18701;45.588;5.288;2023-05-16T12:17:28;12.40;99.90
32201;DHT22;18701;45.588;5.288;2023-05-16T12:19:54;12.30;99.90
32201;DHT22;18701;45.588;5.288;2023-05-16T12:22:20;12.30;99.90
32201;DHT22;18701;45.588;5.288;2023-05-16T12:24:45;12.30;99.90
32201;DHT22;18701;45.588;5.288;2023-05-16T12:27:11;12.50;99.90
32201;DHT22;18701;45.588;5.288;2023-05-16T12:29:37;12.70;99.90
32201;DHT22;18701;45.588;5.288;2023-05-16T12:32:03;12.80;99.90
32201;DHT22;18701;45.588;5.288;2023-05-16T12:34:32;12.90;99.90
32201;DHT22;18701;45.588;5.288;2023-05-16T12:36:58;12.60;99.90
32201;DHT22;18701;45.588;5.288;2023-05-16T12:39:25;12.60;99.90
32201;DHT22;18701;45.588;5.288;2023-05-16T12:41:51;12.80;99.90
32201;DHT22;18701;45.588;5.288;2023-05-16T12:44:17;12.80;99.90
32201;DHT22;18701;45.588;5.288;2023-05-16T12:46:49;12.60;99.90
32201;DHT22;18701;45.588;5.288;2023-05-16T12:49:21;13.00;99.90
32201;DHT22;18701;45.588;5.288;2023-05-16T12:51:54;12.80;99.90
32201;DHT22;18701;45.588;5.288;2023-05-16T12:54:21;13.00;99.90
32201;DHT22;18701;45.588;5.288;2023-05-16T12:56:47;12.70;99.90
32201;DHT22;18701;45.588;5.288;2023-05-16T12:59:13;12.90;99.90
32201;DHT22;18701;45.588;5.288;2023-05-16T13:01:40;13.10;99.90
32201;DHT22;18701;45.588;5.288;2023-05-16T13:04:06;12.90;99.90
32201;DHT22;18701;45.588;5.288;2023-05-16T13:06:33;13.10;99.90
32201;DHT22;18701;45.588;5.288;2023-05-16T13:08:58;13.00;99.90
32201;DHT22;18701;45.588;5.288;2023-05-16T13:11:24;12.80;99.90
32201;DHT22;18701;45.588;5.288;2023-05-16T13:13:51;13.00;99.90
32201;DHT22;18701;45.588;5.288;2023-05-16T13:16:17;13.10;99.90
32201;DHT22;18701;45.588;5.288;2023-05-16T13:18:42;13.20;99.90
32201;DHT22;18701;45.588;5.288;2023-05-16T13:21:08;12.90;99.90
32201;DHT22;18701;45.588;5.288;2023-05-16T13:23:34;13.20;99.90
32201;DHT22;18701;45.588;5.288;2023-05-16T13:25:59;13.20;99.90
32201;DHT22;18701;45.588;5.288;2023-05-16T13:28:25;12.80;99.90
32201;DHT22;18701;45.588;5.288;2023-05-16T13:30:50;12.80;99.90
32201;DHT22;18701;45.588;5.288;2023-05-16T13:33:16;12.70;99.90
32201;DHT22;18701;45.588;5.288;2023-05-16T13:35:45;12.70;99.90
32201;DHT22;18701;45.588;5.288;2023-05-16T13:38:10;12.60;99.90
32201;DHT22;18701;45.588;5.288;2023-05-16T13:40:36;12.80;99.90
32201;DHT22;18701;45.588;5.288;2023-05-16T13:43:02;12.60;99.90
32201;DHT22;18701;45.588;5.288;2023-05-16T13:45:27;12.60;99.90
32201;DHT22;18701;45.588;5.288;2023-05-16T13:47:54;12.80;99.90
32201;DHT22;18701;45.588;5.288;2023-05-16T13:50:22;12.90;99.90
32201;DHT22;18701;45.588;5.288;2023-05-16T13:52:47;12.90;99.90
32201;DHT22;18701;45.588;5.288;2023-05-16T13:55:13;13.00;99.90
32201;DHT22;18701;45.588;5.288;2023-05-16T13:57:39;12.70;99.90
32201;DHT22;18701;45.588;5.288;2023-05-16T14:00:05;13.00;99.90
32201;DHT22;18701;45.588;5.288;2023-05-16T14:02:40;12.90;99.90
32201;DHT22;18701;45.588;5.288;2023-05-16T14:05:07;12.70;99.90
32201;DHT22;18701;45.588;5.288;2023-05-16T14:07:33;12.90;99.90
32201;DHT22;18701;45.588;5.288;2023-05-16T14:09:59;13.00;99.90
32201;DHT22;18701;45.588;5.288;2023-05-16T14:12:25;12.70;99.90
32201;DHT22;18701;45.588;5.288;2023-05-16T14:14:54;12.90;99.90
32201;DHT22;18701;45.588;5.288;2023-05-16T14:17:20;13.10;99.90
32201;DHT22;18701;45.588;5.288;2023-05-16T14:19:48;13.10;99.90
32201;DHT22;18701;45.588;5.288;2023-05-16T14:22:13;13.20;99.90
32201;DHT22;18701;45.588;5.288;2023-05-16T14:24:39;12.80;99.90
32201;DHT22;18701;45.588;5.288;2023-05-16T14:27:05;13.00;99.90
32201;DHT22;18701;45.588;5.288;2023-05-16T14:29:31;12.90;99.90
32201;DHT22;18701;45.588;5.288;2023-05-16T14:31:57;13.10;99.90
32201;DHT22;18701;45.588;5.288;2023-05-16T14:34:22;12.90;99.90
32201;DHT22;18701;45.588;5.288;2023-05-16T14:36:48;13.00;99.90
32201;DHT22;18701;45.588;5.288;2023-05-16T14:39:13;13.00;99.90
32201;DHT22;18701;45.588;5.288;2023-05-16T14:41:39;13.10;99.90
32201;DHT22;18701;45.588;5.288;2023-05-16T14:44:05;13.00;99.90
32201;DHT22;18701;45.588;5.288;2023-05-16T14:46:31;13.10;99.90
32201;DHT22;18701;45.588;5.288;2023-05-16T14:48:56;13.20;99.90
32201;DHT22;18701;45.588;5.288;2023-05-16T14:51:22;13.10;99.90
32201;DHT22;18701;45.588;5.288;2023-05-16T14:53:47;13.20;99.90
32201;DHT22;18701;45.588;5.288;2023-05-16T14:56:14;13.10;99.90
32201;DHT22;18701;45.588;5.288;2023-05-16T14:58:39;13.20;99.90
32201;DHT22;18701;45.588;5.288;2023-05-16T15:01:05;13.10;99.90
32201;DHT22;18701;45.588;5.288;2023-05-16T15:03:31;13.10;99.90
32201;DHT22;18701;45.588;5.288;2023-05-16T15:05:57;13.00;99.90
32201;DHT22;18701;45.588;5.288;2023-05-16T15:08:23;13.30;99.90
32201;DHT22;18701;45.588;5.288;2023-05-16T15:10:48;13.40;99.90
32201;DHT22;18701;45.588;5.288;2023-05-16T15:13:14;13.10;99.90
32201;DHT22;18701;45.588;5.288;2023-05-16T15:15:40;13.40;99.90
32201;DHT22;18701;45.588;5.288;2023-05-16T15:18:06;13.10;99.90
32201;DHT22;18701;45.588;5.288;2023-05-16T15:20:32;13.30;99.90
32201;DHT22;18701;45.588;5.288;2023-05-16T15:22:57;13.40;99.90
32201;DHT22;18701;45.588;5.288;2023-05-16T15:25:23;13.50;99.90
32201;DHT22;18701;45.588;5.288;2023-05-16T15:27:48;13.50;99.90
32201;DHT22;18701;45.588;5.288;2023-05-16T15:30:14;13.40;99.90
32201;DHT22;18701;45.588;5.288;2023-05-16T15:32:40;13.20;99.90
32201;DHT22;18701;45.588;5.288;2023-05-16T15:35:06;13.20;99.90
32201;DHT22;18701;45.588;5.288;2023-05-16T15:37:31;13.20;99.90
32201;DHT22;18701;45.588;5.288;2023-05-16T15:39:57;13.20;99.90
32201;DHT22;18701;45.588;5.288;2023-05-16T15:42:23;13.20;99.90
32201;DHT22;18701;45.588;5.288;2023-05-16T15:44:48;13.20;99.90
32201;DHT22;18701;45.588;5.288;2023-05-16T15:47:14;13.10;99.90
32201;DHT22;18701;45.588;5.288;2023-05-16T15:49:40;13.00;99.90
32201;DHT22;18701;45.588;5.288;2023-05-16T15:52:06;13.10;99.90
32201;DHT22;18701;45.588;5.288;2023-05-16T15:54:32;13.00;99.90